Aviation Digital Data Service (ADDS)

Output produced by METARs form (2041 UTC 21 September 2021)
found at http://aviationweather.gov/metar/data/
 
KJQF 211950Z 00000KT 2SM BR OVC004 22/21 A3013